This is the latest recevied weather packets stored in our database for station/object KC1HBM. If no packets are shown the sender has not sent any weather packets the latest 10 day(s).
| Time | Temp. | Humidity | Pressure | Rain* | Wind** | Luminosity | Snow |
|---|---|---|---|---|---|---|---|
| 1777644979 | 11.67° C | 71% | 1006.2 hPa | 0 mm | - | 93 W/m² | - |
| 1777644678 | 11.67° C | 71% | 1006.3 hPa | 0 mm | - | 90 W/m² | - |
| 1777644373 | 12.78° C | 71% | 1006 hPa | 0 mm | - | 72 W/m² | - |
| 1777644070 | 12.78° C | 70% | 1006.1 hPa | 0 mm | - | 88 W/m² | - |
| 1777643767 | 13.33° C | 67% | 1006 hPa | 0 mm | - | 108 W/m² | - |
| 1777643464 | 14.44° C | 64% | 1006.1 hPa | 0 mm | - | 511 W/m² | - |
| 1777643160 | 12.78° C | 70% | 1006 hPa | 0 mm | - | 557 W/m² | - |
| 1777642857 | 12.78° C | 69% | 1006.1 hPa | 0 mm | - | 496 W/m² | - |
| 1777642554 | 14.44° C | 66% | 1006.3 hPa | 0 mm | - | 147 W/m² | - |
| 1777642250 | 13.33° C | 66% | 1006.1 hPa | 0 mm | - | 511 W/m² | - |
| 1777641948 | 13.89° C | 64% | 1005.9 hPa | 0 mm | - | 470 W/m² | - |
| 1777641643 | 12.78° C | 65% | 1006 hPa | 0 mm | - | 456 W/m² | - |
| 1777641338 | 12.22° C | 67% | 1006.1 hPa | 0 mm | - | 409 W/m² | - |
| 1777641034 | 12.22° C | 67% | 1005.9 hPa | 0 mm | - | 439 W/m² | - |
| 1777640730 | 12.78° C | 67% | 1006.1 hPa | 0 mm | - | 417 W/m² | - |
| 1777640427 | 12.78° C | 69% | 1005.8 hPa | 0 mm | - | 192 W/m² | - |
| 1777640124 | 12.78° C | 67% | 1005.8 hPa | 0 mm | - | 403 W/m² | - |
| 1777639821 | 12.22° C | 70% | 1005.6 hPa | 0 mm | - | 389 W/m² | - |
| 1777639519 | 12.78° C | 68% | 1005.8 hPa | 0 mm | - | 365 W/m² | - |
| 1777639215 | 13.33° C | 67% | 1005.6 hPa | 0 mm | - | 354 W/m² | - |
| 1777638911 | 13.33° C | 68% | 1005.9 hPa | 0 mm | - | 329 W/m² | - |
| 1777638606 | 12.22° C | 72% | 1005.9 hPa | 0 mm | - | 313 W/m² | - |
| 1777638304 | 12.78° C | 73% | 1005.9 hPa | 0 mm | - | 298 W/m² | - |
| 1777638000 | 12.22° C | 73% | 1005.8 hPa | 0 mm | - | 284 W/m² | - |
| 1777637696 | 12.78° C | 75% | 1005.8 hPa | 0 mm | - | 273 W/m² | - |
* Rain latest hour (hover to see other rain measurements)
** Current wind speed in m/s (hover to see current wind gust speed)